sensor_id;sensor_type;location;lat;lon;timestamp;pressure;altitude;pressure_sealevel;temperature;humidity
77778;BME280;66966;-34.746;138.604;2023-07-02T00:00:19;103445.57;;;11.25;47.27
77778;BME280;66966;-34.746;138.604;2023-07-02T00:02:44;103451.24;;;11.63;46.91
77778;BME280;66966;-34.746;138.604;2023-07-02T00:05:10;103457.20;;;11.55;46.87
77778;BME280;66966;-34.746;138.604;2023-07-02T00:07:36;103456.56;;;11.49;46.48
77778;BME280;66966;-34.746;138.604;2023-07-02T00:10:02;103461.94;;;11.68;46.30
77778;BME280;66966;-34.746;138.604;2023-07-02T00:12:28;103462.94;;;12.06;46.16
77778;BME280;66966;-34.746;138.604;2023-07-02T00:14:53;103458.97;;;11.97;45.99
77778;BME280;66966;-34.746;138.604;2023-07-02T00:17:19;103453.01;;;12.06;45.80
77778;BME280;66966;-34.746;138.604;2023-07-02T00:19:45;103448.67;;;12.20;45.61
77778;BME280;66966;-34.746;138.604;2023-07-02T00:22:10;103440.11;;;12.21;45.45
77778;BME280;66966;-34.746;138.604;2023-07-02T00:24:36;103439.40;;;12.12;45.34
77778;BME280;66966;-34.746;138.604;2023-07-02T00:27:02;103438.52;;;12.52;45.09
77778;BME280;66966;-34.746;138.604;2023-07-02T00:29:27;103441.44;;;12.41;45.00
77778;BME280;66966;-34.746;138.604;2023-07-02T00:31:53;103435.26;;;12.78;44.81
77778;BME280;66966;-34.746;138.604;2023-07-02T00:34:20;103429.29;;;12.72;44.52
77778;BME280;66966;-34.746;138.604;2023-07-02T00:36:45;103426.97;;;12.82;44.08
77778;BME280;66966;-34.746;138.604;2023-07-02T00:39:11;103422.12;;;12.64;43.31
77778;BME280;66966;-34.746;138.604;2023-07-02T00:41:36;103424.37;;;12.96;43.27
77778;BME280;66966;-34.746;138.604;2023-07-02T00:44:02;103427.35;;;12.76;42.98
77778;BME280;66966;-34.746;138.604;2023-07-02T00:46:27;103425.26;;;12.93;43.07
77778;BME280;66966;-34.746;138.604;2023-07-02T00:48:55;103426.00;;;13.05;42.16
77778;BME280;66966;-34.746;138.604;2023-07-02T00:51:20;103430.14;;;13.08;41.96
77778;BME280;66966;-34.746;138.604;2023-07-02T00:53:47;103429.57;;;13.13;41.98
77778;BME280;66966;-34.746;138.604;2023-07-02T00:56:10;103422.76;;;13.19;41.82
77778;BME280;66966;-34.746;138.604;2023-07-02T00:58:39;103418.29;;;13.26;41.61
77778;BME280;66966;-34.746;138.604;2023-07-02T01:01:02;103413.45;;;13.40;41.59
77778;BME280;66966;-34.746;138.604;2023-07-02T01:03:27;103411.43;;;13.45;41.69
77778;BME280;66966;-34.746;138.604;2023-07-02T01:05:53;103411.27;;;13.43;41.47
77778;BME280;66966;-34.746;138.604;2023-07-02T01:08:19;103412.01;;;13.64;41.34
77778;BME280;66966;-34.746;138.604;2023-07-02T01:10:44;103414.81;;;13.71;41.19
77778;BME280;66966;-34.746;138.604;2023-07-02T01:13:14;103415.39;;;13.84;40.87
77778;BME280;66966;-34.746;138.604;2023-07-02T01:15:37;103415.04;;;13.92;41.08
77778;BME280;66966;-34.746;138.604;2023-07-02T01:18:02;103418.15;;;13.80;40.55
77778;BME280;66966;-34.746;138.604;2023-07-02T01:20:27;103419.54;;;13.58;40.27
77778;BME280;66966;-34.746;138.604;2023-07-02T01:22:53;103417.52;;;13.86;40.28
77778;BME280;66966;-34.746;138.604;2023-07-02T01:25:19;103418.44;;;13.93;40.30
77778;BME280;66966;-34.746;138.604;2023-07-02T01:27:44;103414.69;;;14.19;40.34
77778;BME280;66966;-34.746;138.604;2023-07-02T01:30:10;103419.81;;;13.70;39.74
77778;BME280;66966;-34.746;138.604;2023-07-02T01:32:36;103419.39;;;14.22;40.16
77778;BME280;66966;-34.746;138.604;2023-07-02T01:35:01;103421.91;;;14.30;40.33
77778;BME280;66966;-34.746;138.604;2023-07-02T01:37:27;103419.64;;;14.14;40.27
77778;BME280;66966;-34.746;138.604;2023-07-02T01:39:52;103414.67;;;14.20;39.84
77778;BME280;66966;-34.746;138.604;2023-07-02T01:42:19;103415.89;;;14.03;39.89
77778;BME280;66966;-34.746;138.604;2023-07-02T01:44:44;103416.70;;;14.31;39.83
77778;BME280;66966;-34.746;138.604;2023-07-02T01:47:09;103413.85;;;14.09;39.76
77778;BME280;66966;-34.746;138.604;2023-07-02T01:49:35;103414.07;;;14.08;39.80
77778;BME280;66966;-34.746;138.604;2023-07-02T01:52:01;103406.39;;;14.15;39.90
77778;BME280;66966;-34.746;138.604;2023-07-02T01:54:27;103404.70;;;14.23;39.74
77778;BME280;66966;-34.746;138.604;2023-07-02T01:56:52;103398.56;;;14.48;39.46
77778;BME280;66966;-34.746;138.604;2023-07-02T01:59:17;103395.65;;;14.27;39.57
77778;BME280;66966;-34.746;138.604;2023-07-02T02:01:43;103393.21;;;14.30;39.28
77778;BME280;66966;-34.746;138.604;2023-07-02T02:04:10;103393.59;;;14.28;39.16
77778;BME280;66966;-34.746;138.604;2023-07-02T02:06:34;103398.98;;;14.21;39.06
77778;BME280;66966;-34.746;138.604;2023-07-02T02:09:01;103403.20;;;14.44;39.42
77778;BME280;66966;-34.746;138.604;2023-07-02T02:11:26;103396.12;;;14.21;39.15
77778;BME280;66966;-34.746;138.604;2023-07-02T02:13:51;103393.24;;;14.19;38.96
77778;BME280;66966;-34.746;138.604;2023-07-02T02:16:18;103389.43;;;14.20;38.98
77778;BME280;66966;-34.746;138.604;2023-07-02T02:18:43;103382.68;;;14.21;39.11
77778;BME280;66966;-34.746;138.604;2023-07-02T02:21:08;103371.29;;;14.17;39.23
77778;BME280;66966;-34.746;138.604;2023-07-02T02:23:34;103363.56;;;13.97;39.03
77778;BME280;66966;-34.746;138.604;2023-07-02T02:26:00;103359.23;;;14.47;39.18
77778;BME280;66966;-34.746;138.604;2023-07-02T02:28:26;103354.64;;;14.22;39.15
77778;BME280;66966;-34.746;138.604;2023-07-02T02:30:51;103353.10;;;14.49;39.20
77778;BME280;66966;-34.746;138.604;2023-07-02T02:33:17;103350.19;;;14.22;39.29
77778;BME280;66966;-34.746;138.604;2023-07-02T02:35:42;103345.25;;;14.18;39.77
77778;BME280;66966;-34.746;138.604;2023-07-02T02:38:08;103341.54;;;14.29;39.65
77778;BME280;66966;-34.746;138.604;2023-07-02T02:40:34;103337.98;;;14.32;39.19
77778;BME280;66966;-34.746;138.604;2023-07-02T02:42:59;103334.95;;;14.35;38.88
77778;BME280;66966;-34.746;138.604;2023-07-02T02:45:25;103328.41;;;14.40;39.13
77778;BME280;66966;-34.746;138.604;2023-07-02T02:47:51;103323.32;;;14.48;39.17
77778;BME280;66966;-34.746;138.604;2023-07-02T02:50:17;103316.37;;;14.54;39.09
77778;BME280;66966;-34.746;138.604;2023-07-02T02:52:42;103311.35;;;14.48;38.69
77778;BME280;66966;-34.746;138.604;2023-07-02T02:55:09;103307.03;;;14.18;38.42
77778;BME280;66966;-34.746;138.604;2023-07-02T02:57:33;103306.07;;;14.21;38.73
77778;BME280;66966;-34.746;138.604;2023-07-02T02:59:59;103306.09;;;14.47;38.95
77778;BME280;66966;-34.746;138.604;2023-07-02T03:02:24;103303.68;;;14.56;38.86
77778;BME280;66966;-34.746;138.604;2023-07-02T03:04:50;103301.34;;;14.66;38.65
77778;BME280;66966;-34.746;138.604;2023-07-02T03:07:16;103295.03;;;14.75;38.57
77778;BME280;66966;-34.746;138.604;2023-07-02T03:09:41;103289.91;;;14.60;38.79
77778;BME280;66966;-34.746;138.604;2023-07-02T03:12:08;103284.12;;;14.51;38.65
77778;BME280;66966;-34.746;138.604;2023-07-02T03:14:33;103278.53;;;14.55;38.54
77778;BME280;66966;-34.746;138.604;2023-07-02T03:16:58;103278.68;;;15.10;38.13
77778;BME280;66966;-34.746;138.604;2023-07-02T03:19:24;103275.28;;;14.67;37.80
77778;BME280;66966;-34.746;138.604;2023-07-02T03:21:49;103266.57;;;15.01;38.00
77778;BME280;66966;-34.746;138.604;2023-07-02T03:24:16;103256.74;;;14.79;37.95
77778;BME280;66966;-34.746;138.604;2023-07-02T03:26:41;103251.11;;;15.13;37.43
77778;BME280;66966;-34.746;138.604;2023-07-02T03:29:06;103247.91;;;14.96;36.75
77778;BME280;66966;-34.746;138.604;2023-07-02T03:31:32;103245.44;;;15.09;37.18
77778;BME280;66966;-34.746;138.604;2023-07-02T03:33:58;103241.83;;;15.27;36.39
77778;BME280;66966;-34.746;138.604;2023-07-02T03:36:24;103239.25;;;15.40;36.11
77778;BME280;66966;-34.746;138.604;2023-07-02T03:38:49;103240.15;;;15.43;35.44
77778;BME280;66966;-34.746;138.604;2023-07-02T03:41:14;103233.98;;;15.32;35.33
77778;BME280;66966;-34.746;138.604;2023-07-02T03:43:40;103231.46;;;15.64;35.17
77778;BME280;66966;-34.746;138.604;2023-07-02T03:46:06;103227.70;;;15.32;35.70
77778;BME280;66966;-34.746;138.604;2023-07-02T03:48:32;103222.31;;;15.48;35.16
77778;BME280;66966;-34.746;138.604;2023-07-02T03:50:57;103215.02;;;15.85;34.58
77778;BME280;66966;-34.746;138.604;2023-07-02T03:53:22;103208.98;;;15.88;33.96
77778;BME280;66966;-34.746;138.604;2023-07-02T03:55:48;103210.56;;;15.89;34.42
77778;BME280;66966;-34.746;138.604;2023-07-02T03:58:14;103201.29;;;15.85;33.40
77778;BME280;66966;-34.746;138.604;2023-07-02T04:00:39;103200.66;;;15.87;34.12
77778;BME280;66966;-34.746;138.604;2023-07-02T04:03:05;103198.36;;;15.88;33.97
77778;BME280;66966;-34.746;138.604;2023-07-02T04:05:30;103196.99;;;15.65;34.23
77778;BME280;66966;-34.746;138.604;2023-07-02T04:07:56;103193.70;;;15.92;34.50
77778;BME280;66966;-34.746;138.604;2023-07-02T04:10:21;103188.14;;;15.73;33.99
77778;BME280;66966;-34.746;138.604;2023-07-02T04:12:47;103180.35;;;15.99;33.80
77778;BME280;66966;-34.746;138.604;2023-07-02T04:15:13;103173.24;;;16.03;34.30
77778;BME280;66966;-34.746;138.604;2023-07-02T04:17:38;103166.36;;;16.08;34.41
77778;BME280;66966;-34.746;138.604;2023-07-02T04:20:04;103158.99;;;15.94;34.11
77778;BME280;66966;-34.746;138.604;2023-07-02T04:22:29;103152.47;;;15.88;34.13
77778;BME280;66966;-34.746;138.604;2023-07-02T04:24:56;103154.52;;;15.91;34.58
77778;BME280;66966;-34.746;138.604;2023-07-02T04:27:20;103150.95;;;15.88;34.10
77778;BME280;66966;-34.746;138.604;2023-07-02T04:29:47;103151.40;;;15.82;34.17
77778;BME280;66966;-34.746;138.604;2023-07-02T04:32:12;103147.80;;;15.57;34.34
77778;BME280;66966;-34.746;138.604;2023-07-02T04:34:37;103143.35;;;15.76;34.32
77778;BME280;66966;-34.746;138.604;2023-07-02T04:37:04;103137.36;;;15.73;34.35
77778;BME280;66966;-34.746;138.604;2023-07-02T04:39:28;103130.85;;;15.68;34.24
77778;BME280;66966;-34.746;138.604;2023-07-02T04:41:54;103130.83;;;15.63;34.67
77778;BME280;66966;-34.746;138.604;2023-07-02T04:44:20;103125.15;;;15.47;33.78
77778;BME280;66966;-34.746;138.604;2023-07-02T04:46:45;103124.37;;;15.46;34.46
77778;BME280;66966;-34.746;138.604;2023-07-02T04:49:11;103127.05;;;15.46;34.94
77778;BME280;66966;-34.746;138.604;2023-07-02T04:51:36;103129.63;;;15.45;34.43
77778;BME280;66966;-34.746;138.604;2023-07-02T04:54:02;103124.10;;;15.44;34.57
77778;BME280;66966;-34.746;138.604;2023-07-02T04:56:28;103123.38;;;15.44;34.82
77778;BME280;66966;-34.746;138.604;2023-07-02T04:58:53;103117.91;;;15.45;34.74
77778;BME280;66966;-34.746;138.604;2023-07-02T05:01:19;103116.04;;;15.44;34.63
77778;BME280;66966;-34.746;138.604;2023-07-02T05:03:44;103116.59;;;15.46;34.69
77778;BME280;66966;-34.746;138.604;2023-07-02T05:06:10;103115.13;;;15.42;34.57
77778;BME280;66966;-34.746;138.604;2023-07-02T05:08:36;103116.14;;;15.87;34.88
77778;BME280;66966;-34.746;138.604;2023-07-02T05:11:01;103115.06;;;15.37;35.09
77778;BME280;66966;-34.746;138.604;2023-07-02T05:13:27;103103.20;;;15.38;34.82
77778;BME280;66966;-34.746;138.604;2023-07-02T05:15:52;103094.12;;;15.38;34.75
77778;BME280;66966;-34.746;138.604;2023-07-02T05:18:18;103096.70;;;15.44;34.72
77778;BME280;66966;-34.746;138.604;2023-07-02T05:20:44;103093.24;;;15.47;34.63
77778;BME280;66966;-34.746;138.604;2023-07-02T05:23:09;103088.75;;;15.48;34.63
77778;BME280;66966;-34.746;138.604;2023-07-02T05:25:35;103082.77;;;15.49;34.72
77778;BME280;66966;-34.746;138.604;2023-07-02T05:28:00;103078.40;;;15.54;34.86
77778;BME280;66966;-34.746;138.604;2023-07-02T05:30:26;103071.43;;;15.57;34.89
77778;BME280;66966;-34.746;138.604;2023-07-02T05:32:52;103069.19;;;15.60;34.66
77778;BME280;66966;-34.746;138.604;2023-07-02T05:35:17;103069.53;;;15.63;34.70
77778;BME280;66966;-34.746;138.604;2023-07-02T05:37:44;103068.67;;;15.89;34.85
77778;BME280;66966;-34.746;138.604;2023-07-02T05:40:09;103069.99;;;15.62;34.25
77778;BME280;66966;-34.746;138.604;2023-07-02T05:42:35;103069.39;;;15.64;34.66
77778;BME280;66966;-34.746;138.604;2023-07-02T05:45:00;103068.31;;;15.67;34.70
77778;BME280;66966;-34.746;138.604;2023-07-02T05:47:25;103073.12;;;15.66;35.06
77778;BME280;66966;-34.746;138.604;2023-07-02T05:49:51;103072.01;;;15.65;35.38
77778;BME280;66966;-34.746;138.604;2023-07-02T05:52:17;103070.60;;;15.58;34.86
77778;BME280;66966;-34.746;138.604;2023-07-02T05:54:42;103071.17;;;15.60;34.54
77778;BME280;66966;-34.746;138.604;2023-07-02T05:57:08;103071.06;;;15.57;34.65
77778;BME280;66966;-34.746;138.604;2023-07-02T05:59:33;103070.60;;;15.54;34.65
77778;BME280;66966;-34.746;138.604;2023-07-02T06:01:59;103067.02;;;15.53;34.57
77778;BME280;66966;-34.746;138.604;2023-07-02T06:04:25;103063.03;;;15.53;34.46
77778;BME280;66966;-34.746;138.604;2023-07-02T06:06:50;103059.22;;;15.46;33.83
77778;BME280;66966;-34.746;138.604;2023-07-02T06:09:16;103058.00;;;15.46;34.07
77778;BME280;66966;-34.746;138.604;2023-07-02T06:11:41;103056.14;;;15.91;33.77
77778;BME280;66966;-34.746;138.604;2023-07-02T06:14:07;103054.94;;;15.21;34.12
77778;BME280;66966;-34.746;138.604;2023-07-02T06:16:32;103054.48;;;15.42;34.09
77778;BME280;66966;-34.746;138.604;2023-07-02T06:18:58;103054.67;;;15.44;33.74
77778;BME280;66966;-34.746;138.604;2023-07-02T06:21:24;103057.47;;;15.46;34.34
77778;BME280;66966;-34.746;138.604;2023-07-02T06:23:49;103058.13;;;15.46;34.18
77778;BME280;66966;-34.746;138.604;2023-07-02T06:26:15;103058.09;;;15.26;34.25
77778;BME280;66966;-34.746;138.604;2023-07-02T06:28:41;103057.32;;;15.54;34.15
77778;BME280;66966;-34.746;138.604;2023-07-02T06:31:06;103059.22;;;15.34;33.90
77778;BME280;66966;-34.746;138.604;2023-07-02T06:33:32;103060.28;;;15.36;33.81
77778;BME280;66966;-34.746;138.604;2023-07-02T06:35:57;103059.78;;;15.60;33.94
77778;BME280;66966;-34.746;138.604;2023-07-02T06:38:23;103055.78;;;15.55;33.41
77778;BME280;66966;-34.746;138.604;2023-07-02T06:40:49;103056.42;;;15.50;34.12
77778;BME280;66966;-34.746;138.604;2023-07-02T06:43:14;103058.09;;;15.48;34.54
77778;BME280;66966;-34.746;138.604;2023-07-02T06:45:40;103059.91;;;15.70;34.69
77778;BME280;66966;-34.746;138.604;2023-07-02T06:48:06;103059.44;;;15.15;34.79
77778;BME280;66966;-34.746;138.604;2023-07-02T06:50:31;103054.90;;;15.30;34.81
77778;BME280;66966;-34.746;138.604;2023-07-02T06:52:57;103053.06;;;15.24;34.62
77778;BME280;66966;-34.746;138.604;2023-07-02T06:55:22;103051.19;;;15.16;34.83
77778;BME280;66966;-34.746;138.604;2023-07-02T06:57:48;103057.08;;;15.05;35.00
77778;BME280;66966;-34.746;138.604;2023-07-02T07:00:14;103060.79;;;15.53;35.01
77778;BME280;66966;-34.746;138.604;2023-07-02T07:02:39;103059.53;;;15.00;35.20
77778;BME280;66966;-34.746;138.604;2023-07-02T07:05:05;103060.04;;;15.15;35.52
77778;BME280;66966;-34.746;138.604;2023-07-02T07:07:30;103061.86;;;14.86;35.63
77778;BME280;66966;-34.746;138.604;2023-07-02T07:09:56;103065.39;;;15.30;35.72
77778;BME280;66966;-34.746;138.604;2023-07-02T07:12:21;103067.64;;;14.79;35.68
77778;BME280;66966;-34.746;138.604;2023-07-02T07:14:47;103065.85;;;14.99;35.85
77778;BME280;66966;-34.746;138.604;2023-07-02T07:17:13;103062.39;;;15.20;36.09
77778;BME280;66966;-34.746;138.604;2023-07-02T07:19:38;103056.60;;;14.68;36.15
77778;BME280;66966;-34.746;138.604;2023-07-02T07:22:04;103055.45;;;14.63;36.38
77778;BME280;66966;-34.746;138.604;2023-07-02T07:24:30;103059.36;;;14.87;36.46
77778;BME280;66966;-34.746;138.604;2023-07-02T07:26:56;103056.73;;;15.06;36.45
77778;BME280;66966;-34.746;138.604;2023-07-02T07:29:21;103058.12;;;15.02;36.66
77778;BME280;66966;-34.746;138.604;2023-07-02T07:31:46;103056.95;;;14.46;36.86
77778;BME280;66966;-34.746;138.604;2023-07-02T07:34:12;103055.67;;;14.46;36.78
77778;BME280;66966;-34.746;138.604;2023-07-02T07:36:38;103060.35;;;14.67;36.86
77778;BME280;66966;-34.746;138.604;2023-07-02T07:39:04;103057.20;;;14.92;37.11
77778;BME280;66966;-34.746;138.604;2023-07-02T07:41:29;103056.11;;;14.86;36.81
77778;BME280;66966;-34.746;138.604;2023-07-02T07:43:54;103052.62;;;14.86;37.01
77778;BME280;66966;-34.746;138.604;2023-07-02T07:46:19;103049.48;;;14.80;36.87
77778;BME280;66966;-34.746;138.604;2023-07-02T07:48:45;103048.18;;;14.72;36.55
77778;BME280;66966;-34.746;138.604;2023-07-02T07:51:11;103049.69;;;14.36;36.75
77778;BME280;66966;-34.746;138.604;2023-07-02T07:53:38;103051.14;;;14.47;36.49
77778;BME280;66966;-34.746;138.604;2023-07-02T07:56:02;103055.48;;;14.36;36.73
77778;BME280;66966;-34.746;138.604;2023-07-02T07:58:27;103059.95;;;14.29;36.79
77778;BME280;66966;-34.746;138.604;2023-07-02T08:00:53;103060.19;;;14.20;36.92
77778;BME280;66966;-34.746;138.604;2023-07-02T08:03:19;103061.98;;;14.34;36.88
77778;BME280;66966;-34.746;138.604;2023-07-02T08:05:44;103062.20;;;14.04;37.14
77778;BME280;66966;-34.746;138.604;2023-07-02T08:08:09;103064.65;;;13.68;37.31
77778;BME280;66966;-34.746;138.604;2023-07-02T08:10:35;103065.71;;;14.07;37.42
77778;BME280;66966;-34.746;138.604;2023-07-02T08:13:01;103068.52;;;13.76;37.51
77778;BME280;66966;-34.746;138.604;2023-07-02T08:15:27;103068.71;;;13.65;37.66
77778;BME280;66966;-34.746;138.604;2023-07-02T08:17:52;103067.85;;;13.59;37.61
77778;BME280;66966;-34.746;138.604;2023-07-02T08:20:18;103072.55;;;13.76;37.62
77778;BME280;66966;-34.746;138.604;2023-07-02T08:22:44;103073.80;;;13.70;37.60
77778;BME280;66966;-34.746;138.604;2023-07-02T08:25:09;103077.65;;;13.42;37.59
77778;BME280;66966;-34.746;138.604;2023-07-02T08:27:36;103080.76;;;13.63;37.63
77778;BME280;66966;-34.746;138.604;2023-07-02T08:30:01;103082.17;;;13.56;37.70
77778;BME280;66966;-34.746;138.604;2023-07-02T08:32:26;103083.42;;;13.68;37.79
77778;BME280;66966;-34.746;138.604;2023-07-02T08:34:52;103082.70;;;13.62;37.79
77778;BME280;66966;-34.746;138.604;2023-07-02T08:37:19;103083.01;;;13.33;37.80
77778;BME280;66966;-34.746;138.604;2023-07-02T08:39:43;103082.55;;;13.31;37.63
77778;BME280;66966;-34.746;138.604;2023-07-02T08:42:09;103085.21;;;13.45;37.55
77778;BME280;66966;-34.746;138.604;2023-07-02T08:44:35;103092.39;;;13.36;37.64
77778;BME280;66966;-34.746;138.604;2023-07-02T08:47:01;103094.95;;;13.32;37.84
77778;BME280;66966;-34.746;138.604;2023-07-02T08:49:26;103093.58;;;13.26;37.96
77778;BME280;66966;-34.746;138.604;2023-07-02T08:51:52;103097.08;;;13.20;38.12
77778;BME280;66966;-34.746;138.604;2023-07-02T08:54:19;103096.66;;;13.12;38.16
77778;BME280;66966;-34.746;138.604;2023-07-02T08:56:43;103100.70;;;13.09;38.30
77778;BME280;66966;-34.746;138.604;2023-07-02T08:59:10;103100.34;;;13.03;38.27
77778;BME280;66966;-34.746;138.604;2023-07-02T09:04:00;103102.66;;;12.72;38.15
77778;BME280;66966;-34.746;138.604;2023-07-02T09:06:26;103108.58;;;12.93;38.10
77778;BME280;66966;-34.746;138.604;2023-07-02T09:08:52;103113.75;;;12.90;38.16
77778;BME280;66966;-34.746;138.604;2023-07-02T09:11:18;103113.29;;;12.87;38.14
77778;BME280;66966;-34.746;138.604;2023-07-02T09:13:46;103113.96;;;12.82;38.10
77778;BME280;66966;-34.746;138.604;2023-07-02T09:16:19;103112.58;;;12.79;38.16
77778;BME280;66966;-34.746;138.604;2023-07-02T09:18:35;103113.75;;;12.83;38.16
77778;BME280;66966;-34.746;138.604;2023-07-02T09:21:01;103113.33;;;12.82;38.25
77778;BME280;66966;-34.746;138.604;2023-07-02T09:23:34;103110.58;;;12.80;38.30
77778;BME280;66966;-34.746;138.604;2023-07-02T09:25:52;103108.32;;;12.77;38.15
77778;BME280;66966;-34.746;138.604;2023-07-02T09:28:21;103104.16;;;12.76;38.19
77778;BME280;66966;-34.746;138.604;2023-07-02T09:30:51;103102.59;;;12.77;38.27
77778;BME280;66966;-34.746;138.604;2023-07-02T09:33:09;103101.94;;;12.75;38.25
77778;BME280;66966;-34.746;138.604;2023-07-02T09:35:35;103098.22;;;12.71;38.31
77778;BME280;66966;-34.746;138.604;2023-07-02T09:38:00;103097.34;;;12.95;38.38
77778;BME280;66966;-34.746;138.604;2023-07-02T09:40:25;103093.01;;;12.68;38.37
77778;BME280;66966;-34.746;138.604;2023-07-02T09:42:51;103094.19;;;12.65;38.43
77778;BME280;66966;-34.746;138.604;2023-07-02T09:45:17;103092.23;;;12.64;38.57
77778;BME280;66966;-34.746;138.604;2023-07-02T09:47:47;103091.99;;;12.83;38.52
77778;BME280;66966;-34.746;138.604;2023-07-02T09:50:09;103087.75;;;12.57;38.57
77778;BME280;66966;-34.746;138.604;2023-07-02T09:52:35;103088.59;;;12.79;38.64
77778;BME280;66966;-34.746;138.604;2023-07-02T09:54:59;103090.41;;;12.75;38.63
77778;BME280;66966;-34.746;138.604;2023-07-02T09:57:25;103093.60;;;12.71;38.83
77778;BME280;66966;-34.746;138.604;2023-07-02T09:59:51;103091.21;;;12.44;38.92
77778;BME280;66966;-34.746;138.604;2023-07-02T10:02:17;103089.25;;;12.93;38.99
77778;BME280;66966;-34.746;138.604;2023-07-02T10:04:43;103095.94;;;12.45;39.01
77778;BME280;66966;-34.746;138.604;2023-07-02T10:07:08;103095.67;;;12.66;39.05
77778;BME280;66966;-34.746;138.604;2023-07-02T10:09:38;103093.98;;;12.59;39.12
77778;BME280;66966;-34.746;138.604;2023-07-02T10:11:59;103097.43;;;12.85;39.14
77778;BME280;66966;-34.746;138.604;2023-07-02T10:14:25;103092.12;;;12.56;39.17
77778;BME280;66966;-34.746;138.604;2023-07-02T10:16:52;103088.07;;;12.76;39.17
77778;BME280;66966;-34.746;138.604;2023-07-02T10:19:17;103080.52;;;12.60;38.78
77778;BME280;66966;-34.746;138.604;2023-07-02T10:21:42;103080.66;;;12.73;38.85
77778;BME280;66966;-34.746;138.604;2023-07-02T10:24:13;103085.22;;;12.40;39.02
77778;BME280;66966;-34.746;138.604;2023-07-02T10:26:34;103086.64;;;12.80;39.09
77778;BME280;66966;-34.746;138.604;2023-07-02T10:29:00;103086.84;;;12.78;39.10
77778;BME280;66966;-34.746;138.604;2023-07-02T10:31:25;103084.86;;;12.69;39.30
77778;BME280;66966;-34.746;138.604;2023-07-02T10:33:51;103083.85;;;12.41;39.37
77778;BME280;66966;-34.746;138.604;2023-07-02T10:36:21;103079.23;;;12.63;39.38
77778;BME280;66966;-34.746;138.604;2023-07-02T10:38:42;103075.83;;;12.34;39.39
77778;BME280;66966;-34.746;138.604;2023-07-02T10:41:08;103071.00;;;12.07;39.50
77778;BME280;66966;-34.746;138.604;2023-07-02T10:43:34;103070.84;;;12.26;39.51
77778;BME280;66966;-34.746;138.604;2023-07-02T10:46:00;103068.46;;;12.50;39.50
77778;BME280;66966;-34.746;138.604;2023-07-02T10:48:26;103060.03;;;12.26;39.53
77778;BME280;66966;-34.746;138.604;2023-07-02T10:50:51;103051.53;;;12.49;39.50
77778;BME280;66966;-34.746;138.604;2023-07-02T10:53:17;103048.86;;;11.97;39.48
77778;BME280;66966;-34.746;138.604;2023-07-02T10:55:43;103046.98;;;12.40;39.54
77778;BME280;66966;-34.746;138.604;2023-07-02T10:58:09;103045.81;;;11.93;39.52
77778;BME280;66966;-34.746;138.604;2023-07-02T11:03:00;103037.76;;;12.32;39.56
77778;BME280;66966;-34.746;138.604;2023-07-02T11:05:26;103033.76;;;12.19;39.68
77778;BME280;66966;-34.746;138.604;2023-07-02T11:07:52;103031.78;;;11.92;39.75
77778;BME280;66966;-34.746;138.604;2023-07-02T11:10:20;103029.38;;;12.12;39.81
77778;BME280;66966;-34.746;138.604;2023-07-02T11:12:43;103024.27;;;12.21;39.72
77778;BME280;66966;-34.746;138.604;2023-07-02T11:15:09;103017.26;;;12.15;39.76
77778;BME280;66966;-34.746;138.604;2023-07-02T11:17:34;103019.22;;;12.24;39.66
77778;BME280;66966;-34.746;138.604;2023-07-02T11:20:00;103020.73;;;12.02;39.83
77778;BME280;66966;-34.746;138.604;2023-07-02T11:22:33;103017.81;;;11.97;39.89
77778;BME280;66966;-34.746;138.604;2023-07-02T11:24:51;103010.90;;;11.94;39.99
77778;BME280;66966;-34.746;138.604;2023-07-02T11:27:21;103007.47;;;12.12;40.05
77778;BME280;66966;-34.746;138.604;2023-07-02T11:29:43;103005.86;;;11.90;40.03
77778;BME280;66966;-34.746;138.604;2023-07-02T11:32:10;103002.58;;;11.94;39.99
77778;BME280;66966;-34.746;138.604;2023-07-02T11:34:35;103003.66;;;11.94;39.98
77778;BME280;66966;-34.746;138.604;2023-07-02T11:37:00;103006.07;;;12.17;39.95
77778;BME280;66966;-34.746;138.604;2023-07-02T11:39:26;103005.83;;;12.42;39.96
77778;BME280;66966;-34.746;138.604;2023-07-02T11:41:53;103009.54;;;11.92;39.92
77778;BME280;66966;-34.746;138.604;2023-07-02T11:44:18;103019.49;;;11.93;39.81
77778;BME280;66966;-34.746;138.604;2023-07-02T11:46:44;103023.97;;;12.09;39.84
77778;BME280;66966;-34.746;138.604;2023-07-02T11:49:09;103022.58;;;11.86;39.92
77778;BME280;66966;-34.746;138.604;2023-07-02T11:51:36;103021.63;;;11.83;39.88
77778;BME280;66966;-34.746;138.604;2023-07-02T11:54:01;103020.62;;;11.81;39.91
77778;BME280;66966;-34.746;138.604;2023-07-02T11:56:26;103024.90;;;11.84;39.79
77778;BME280;66966;-34.746;138.604;2023-07-02T11:58:52;103031.09;;;11.80;39.84
77778;BME280;66966;-34.746;138.604;2023-07-02T12:01:18;103028.58;;;11.80;39.87
77778;BME280;66966;-34.746;138.604;2023-07-02T12:03:44;103031.01;;;11.74;39.94
77778;BME280;66966;-34.746;138.604;2023-07-02T12:06:09;103028.53;;;11.73;39.98
77778;BME280;66966;-34.746;138.604;2023-07-02T12:08:35;103026.72;;;11.75;39.97
77778;BME280;66966;-34.746;138.604;2023-07-02T12:11:01;103022.32;;;11.76;39.95
77778;BME280;66966;-34.746;138.604;2023-07-02T12:13:27;103015.45;;;11.75;39.98
77778;BME280;66966;-34.746;138.604;2023-07-02T12:15:53;103013.68;;;11.74;40.04